Marco Polo — C6JZ7 — position and weather

sailwx.info

Track history (hours):
 
Tides and Currents Weather Stations Pressure Air Temp Water Temp Dewpoint Dewpoint Depression Visibility Wind Speed Wind Dir Waves Ship Positions

Marco Polo

Operator: Orient Lines

Last reported at 2016-Sep-25 21:34 UTC. Time now 2016-Sep-30 20:19 UTC.
Position N 58°55' W 004°20'.

Type: Ship. MMSI: 308691456.

Date/timePositionNaut miles runAvg speedWind from/ knotsBaromVisibWave heightAir tempDewpointWater temp
2016-Sep-25 21:34N 58°55' W 004°20'20714.8
2016-Sep-25 07:33N 55°44' W 006°45'5415.6
2016-Sep-25 04:07N 55°04' W 005°42'5615.6
2016-Sep-25 00:34N 54°13' W 005°02'5716.4
2016-Sep-24 21:07N 53°36' W 003°49'2315.0
2016-Sep-24 19:33N 53°32' W 003°10'10 9.5
2016-Sep-24 18:33N 53°24' W 003°00'0 0.0
2016-Sep-24 17:28N 53°24' W 003°00'0 0.0
2016-Sep-24 16:31N 53°24' W 003°00'0 0.0
2016-Sep-24 14:28N 53°24' W 003°00'0 0.0
2016-Sep-24 12:31N 53°24' W 003°00'0 0.0
2016-Sep-24 10:28N 53°24' W 003°00'0 0.0
2016-Sep-24 09:29N 53°24' W 003°00'6310.6
2016-Sep-24 03:33N 53°26' W 004°45'13116.4
2016-Sep-23 19:33N 51°53' W 007°18'3316.5
2016-Sep-23 17:33N 51°45' W 008°10'7 7.0
2016-Sep-23 16:31N 51°51' W 008°18'0 0.0
2016-Sep-23 15:31N 51°51' W 008°18'0 0.0
2016-Sep-23 13:31N 51°51' W 008°18'0 0.0
2016-Sep-23 09:31N 51°51' W 008°18'0 0.1
2016-Sep-23 06:34N 51°51' W 008°18'2210.8
2016-Sep-23 04:34N 51°32' W 008°36'1616.0
2016-Sep-23 03:34N 51°26' W 008°59'1615.6
2016-Sep-23 02:34N 51°20' W 009°23'1515.2
2016-Sep-23 01:34N 51°15' W 009°46'  
2016-Sep-16 17:33N 48°58' W 057°57'0 0.0
2016-Sep-16 15:33N 48°58' W 057°57'0 0.0
2016-Sep-16 12:33N 48°58' W 057°57'10 3.5
2016-Sep-16 09:33N 49°04' W 058°09'  
Track history (hours):
 
Tides and Currents Weather Stations Pressure Air Temp Water Temp Dewpoint Dewpoint Depression Visibility Wind Speed Wind Dir Waves Ship Positions

Marco Polo

Operator: Orient Lines

Last reported at 2016-Sep-25 21:34 UTC. Time now 2016-Sep-30 20:19 UTC.
Position N 58°55' W 004°20'.

Type: Ship. MMSI: 308691456.

Date/timePositionNaut miles runAvg speedWind from/ knotsBaromVisibWave heightAir tempDewpointWater temp
2016-Sep-25 21:34N 58°55' W 004°20'20714.8
2016-Sep-25 07:33N 55°44' W 006°45'5415.6
2016-Sep-25 04:07N 55°04' W 005°42'5615.6
2016-Sep-25 00:34N 54°13' W 005°02'5716.4
2016-Sep-24 21:07N 53°36' W 003°49'2315.0
2016-Sep-24 19:33N 53°32' W 003°10'10 9.5
2016-Sep-24 18:33N 53°24' W 003°00'0 0.0
2016-Sep-24 17:28N 53°24' W 003°00'0 0.0
2016-Sep-24 16:31N 53°24' W 003°00'0 0.0
2016-Sep-24 14:28N 53°24' W 003°00'0 0.0
2016-Sep-24 12:31N 53°24' W 003°00'0 0.0
2016-Sep-24 10:28N 53°24' W 003°00'0 0.0
2016-Sep-24 09:29N 53°24' W 003°00'6310.6
2016-Sep-24 03:33N 53°26' W 004°45'13116.4
2016-Sep-23 19:33N 51°53' W 007°18'3316.5
2016-Sep-23 17:33N 51°45' W 008°10'7 7.0
2016-Sep-23 16:31N 51°51' W 008°18'0 0.0
2016-Sep-23 15:31N 51°51' W 008°18'0 0.0
2016-Sep-23 13:31N 51°51' W 008°18'0 0.0
2016-Sep-23 09:31N 51°51' W 008°18'0 0.1
2016-Sep-23 06:34N 51°51' W 008°18'2210.8
2016-Sep-23 04:34N 51°32' W 008°36'1616.0
2016-Sep-23 03:34N 51°26' W 008°59'1615.6
2016-Sep-23 02:34N 51°20' W 009°23'1515.2
2016-Sep-23 01:34N 51°15' W 009°46'  
2016-Sep-16 17:33N 48°58' W 057°57'0 0.0
2016-Sep-16 15:33N 48°58' W 057°57'0 0.0
2016-Sep-16 12:33N 48°58' W 057°57'10 3.5
2016-Sep-16 09:33N 49°04' W 058°09'  

Dump ship's entire track history